Time;durP1;ratioP1;P1;durP2;ratioP2;P2;SDS_P1;SDS_P2;PMS_P1;PMS_P2;Temp;Humidity;BMP_temperature;BMP_pressure;BME280_temperature;BME280_humidity;BME280_pressure;Samples;Min_cycle;Max_cycle;Signal;HPM_P1;HPM_P2
2022/10/06 00:00:26;;;;;;;52.70;18.98;;;;;;;;;;4921586;29;20044;-75
2022/10/06 00:02:53;;;;;;;67.65;19.85;;;;;;;;;;4921046;29;20396;-81
2022/10/06 00:05:19;;;;;;;56.47;19.35;;;;;;;;;;4924287;29;20036;-80
2022/10/06 00:07:46;;;;;;;80.28;21.92;;;;;;;;;;4931883;29;20078;-80
2022/10/06 00:10:12;;;;;;;77.45;20.38;;;;;;;;;;4916618;29;20504;-82
2022/10/06 00:12:44;;;;;;;60.53;20.15;;;;;;;;;;4932557;29;20055;-82
2022/10/06 00:15:11;;;;;;;67.45;21.27;;;;;;;;;;4921878;29;20047;-84
2022/10/06 00:17:38;;;;;;;74.45;21.85;;;;;;;;;;4921016;29;20044;-82
2022/10/06 00:20:05;;;;;;;87.93;22.35;;;;;;;;;;4920811;29;20047;-82
2022/10/06 00:22:35;;;;;;;65.70;20.13;;;;;;;;;;4919347;29;20396;-82
2022/10/06 00:25:02;;;;;;;67.68;21.13;;;;;;;;;;4936437;29;20043;-82
2022/10/06 00:27:36;;;;;;;60.50;19.20;;;;;;;;;;4936117;29;20090;-83
2022/10/06 00:30:03;;;;;;;88.75;23.13;;;;;;;;;;4926266;29;20060;-83
2022/10/06 00:32:29;;;;;;;78.70;22.73;;;;;;;;;;4924667;29;20050;-82
2022/10/06 00:34:57;;;;;;;68.30;19.85;;;;;;;;;;4924625;29;20099;-82
2022/10/06 00:37:25;;;;;;;82.90;21.70;;;;;;;;;;4920487;29;20054;-80
2022/10/06 00:39:51;;;;;;;64.65;22.25;;;;;;;;;;4920246;29;20160;-75
2022/10/06 00:42:22;;;;;;;60.13;21.45;;;;;;;;;;4918084;29;20404;-79
2022/10/06 00:44:48;;;;;;;99.80;24.27;;;;;;;;;;4906921;29;20052;-78
2022/10/06 00:47:16;;;;;;;77.18;22.23;;;;;;;;;;4930159;29;20147;-78
2022/10/06 00:49:44;;;;;;;80.32;23.77;;;;;;;;;;4922751;29;20686;-78
2022/10/06 00:52:12;;;;;;;116.13;26.60;;;;;;;;;;4902525;29;20056;-77
2022/10/06 00:54:39;;;;;;;68.28;21.13;;;;;;;;;;4921430;29;20040;-77
2022/10/06 00:57:06;;;;;;;111.82;23.92;;;;;;;;;;4923798;29;20067;-77
2022/10/06 00:59:34;;;;;;;97.03;23.55;;;;;;;;;;4928502;29;20494;-74
2022/10/06 01:02:00;;;;;;;82.65;23.50;;;;;;;;;;4933782;29;20066;-76
2022/10/06 01:04:30;;;;;;;60.53;21.75;;;;;;;;;;4922730;29;20043;-81
2022/10/06 01:06:57;;;;;;;98.32;24.48;;;;;;;;;;4946002;29;20041;-75
2022/10/06 01:09:25;;;;;;;91.65;24.23;;;;;;;;;;4906030;29;20480;-75
2022/10/06 01:11:52;;;;;;;65.40;21.77;;;;;;;;;;4911020;29;20547;-74
2022/10/06 01:14:20;;;;;;;86.65;24.15;;;;;;;;;;4934130;29;20408;-77
2022/10/06 01:16:48;;;;;;;67.25;22.10;;;;;;;;;;4934201;29;20046;-77
2022/10/06 01:19:34;;;;;;;87.28;23.25;;;;;;;;;;4902159;29;20500;-76
2022/10/06 01:22:04;;;;;;;85.97;22.52;;;;;;;;;;4919145;29;20511;-77
2022/10/06 01:24:33;;;;;;;71.15;23.35;;;;;;;;;;4906214;29;20051;-80
2022/10/06 01:27:01;;;;;;;95.97;25.77;;;;;;;;;;4910010;29;20055;-80
2022/10/06 01:29:30;;;;;;;79.05;23.92;;;;;;;;;;4942795;29;20054;-80
2022/10/06 01:31:56;;;;;;;65.00;22.63;;;;;;;;;;4955535;29;20048;-80
2022/10/06 01:34:23;;;;;;;85.07;21.98;;;;;;;;;;4932635;29;20051;-76
2022/10/06 01:36:49;;;;;;;70.00;22.15;;;;;;;;;;4919630;29;20044;-76
2022/10/06 01:39:16;;;;;;;101.95;25.40;;;;;;;;;;4902333;29;20057;-80
2022/10/06 01:41:44;;;;;;;91.13;23.30;;;;;;;;;;4933266;29;20040;-81
2022/10/06 01:44:10;;;;;;;74.93;23.83;;;;;;;;;;4932563;29;20044;-85
2022/10/06 01:46:37;;;;;;;62.90;22.25;;;;;;;;;;4936709;29;20535;-83
2022/10/06 01:49:03;;;;;;;79.30;23.23;;;;;;;;;;4955028;29;20047;-83
2022/10/06 01:51:30;;;;;;;80.20;24.77;;;;;;;;;;4924512;29;20058;-76
2022/10/06 01:53:56;;;;;;;92.05;24.77;;;;;;;;;;4925656;29;20048;-78
2022/10/06 01:56:23;;;;;;;68.95;21.90;;;;;;;;;;4923057;29;20087;-78
2022/10/06 01:58:49;;;;;;;62.45;21.13;;;;;;;;;;4922282;29;20050;-74
2022/10/06 02:01:16;;;;;;;80.50;23.40;;;;;;;;;;4908285;29;20530;-74
2022/10/06 02:03:43;;;;;;;95.68;23.60;;;;;;;;;;4902602;29;20055;-73
2022/10/06 02:06:09;;;;;;;69.97;21.77;;;;;;;;;;4932593;29;20043;-74
2022/10/06 02:08:36;;;;;;;63.92;21.98;;;;;;;;;;4932243;29;20056;-75
2022/10/06 02:11:05;;;;;;;85.30;22.90;;;;;;;;;;4912077;29;20075;-78
2022/10/06 02:13:32;;;;;;;70.75;22.67;;;;;;;;;;4933041;29;20074;-74
2022/10/06 02:15:58;;;;;;;85.40;23.83;;;;;;;;;;4918372;29;20563;-74
2022/10/06 02:18:25;;;;;;;73.60;22.27;;;;;;;;;;4904949;29;20066;-72
2022/10/06 02:20:53;;;;;;;72.75;23.05;;;;;;;;;;4901074;29;20512;-78
2022/10/06 02:23:19;;;;;;;74.13;22.52;;;;;;;;;;4922832;29;20039;-79
2022/10/06 02:25:46;;;;;;;99.25;23.70;;;;;;;;;;4900831;29;20047;-73
2022/10/06 02:28:15;;;;;;;75.63;23.02;;;;;;;;;;4900738;29;20084;-74
2022/10/06 02:30:43;;;;;;;74.47;22.85;;;;;;;;;;4902321;29;20468;-76
2022/10/06 02:33:09;;;;;;;92.78;23.02;;;;;;;;;;4931623;29;20058;-77
2022/10/06 02:35:36;;;;;;;78.28;23.20;;;;;;;;;;4926849;29;20048;-77
2022/10/06 02:38:02;;;;;;;75.00;22.27;;;;;;;;;;4930132;29;20504;-76
2022/10/06 02:40:29;;;;;;;83.18;22.83;;;;;;;;;;4918895;29;20039;-75
2022/10/06 02:42:57;;;;;;;90.07;22.73;;;;;;;;;;4901624;29;20051;-84
2022/10/06 02:45:23;;;;;;;91.93;23.48;;;;;;;;;;4920764;29;20048;-77
2022/10/06 02:47:50;;;;;;;115.50;24.77;;;;;;;;;;4908419;29;20527;-77
2022/10/06 02:50:17;;;;;;;66.00;21.48;;;;;;;;;;4931389;29;20385;-81
2022/10/06 02:52:44;;;;;;;71.05;21.65;;;;;;;;;;4917009;29;20091;-83
2022/10/06 02:55:12;;;;;;;91.60;22.05;;;;;;;;;;4900442;29;20139;-81
2022/10/06 02:57:38;;;;;;;93.72;24.40;;;;;;;;;;4930204;29;20044;-82
2022/10/06 03:00:06;;;;;;;70.07;21.67;;;;;;;;;;4903775;29;20159;-81
2022/10/06 03:02:33;;;;;;;86.03;22.92;;;;;;;;;;4900713;29;20063;-80
2022/10/06 03:04:59;;;;;;;73.90;22.38;;;;;;;;;;4906364;29;20098;-81
2022/10/06 03:07:26;;;;;;;64.70;20.67;;;;;;;;;;4932841;29;20027;-81
2022/10/06 03:09:53;;;;;;;71.90;21.20;;;;;;;;;;4936130;29;20062;-81
2022/10/06 03:12:21;;;;;;;105.68;24.30;;;;;;;;;;4917967;29;20036;-78
2022/10/06 03:14:48;;;;;;;77.95;22.65;;;;;;;;;;4918845;29;20074;-79
2022/10/06 03:17:15;;;;;;;94.55;23.15;;;;;;;;;;4929589;29;20135;-80
2022/10/06 03:19:47;;;;;;;92.47;23.33;;;;;;;;;;4903734;29;20111;-81
2022/10/06 03:22:14;;;;;;;74.55;22.58;;;;;;;;;;4900158;29;20103;-80
2022/10/06 03:24:46;;;;;;;80.82;22.05;;;;;;;;;;4901394;29;20060;-80
2022/10/06 03:27:12;;;;;;;76.43;22.80;;;;;;;;;;4914764;29;20062;-78
2022/10/06 03:29:39;;;;;;;80.95;22.17;;;;;;;;;;4914857;29;20051;-75
2022/10/06 03:32:06;;;;;;;105.45;23.40;;;;;;;;;;4913093;29;20051;-75
2022/10/06 03:34:33;;;;;;;79.22;24.33;;;;;;;;;;4902425;29;20039;-70
2022/10/06 03:37:02;;;;;;;82.70;21.55;;;;;;;;;;4915070;29;20159;-72
2022/10/06 03:39:29;;;;;;;102.65;23.20;;;;;;;;;;4902868;29;20107;-72
2022/10/06 03:41:55;;;;;;;112.72;24.83;;;;;;;;;;4899346;29;20576;-77
2022/10/06 03:44:22;;;;;;;86.40;23.05;;;;;;;;;;4903981;29;20134;-70
2022/10/06 03:46:48;;;;;;;93.22;24.05;;;;;;;;;;4902885;29;20122;-76
2022/10/06 03:49:15;;;;;;;76.90;21.75;;;;;;;;;;4914724;29;20114;-73
2022/10/06 03:51:42;;;;;;;92.53;23.48;;;;;;;;;;4901202;29;20078;-70
2022/10/06 03:54:17;;;;;;;95.18;23.10;;;;;;;;;;4911586;29;20075;-70
2022/10/06 03:56:46;;;;;;;78.95;21.38;;;;;;;;;;4928902;29;20051;-70
2022/10/06 03:59:15;;;;;;;86.10;23.52;;;;;;;;;;4911557;29;20654;-71
2022/10/06 04:01:44;;;;;;;86.05;22.77;;;;;;;;;;4905918;29;20115;-72
2022/10/06 04:04:15;;;;;;;75.65;22.63;;;;;;;;;;4903204;29;20098;-72
2022/10/06 04:06:45;;;;;;;110.25;24.10;;;;;;;;;;4918409;29;20151;-72
2022/10/06 04:09:15;;;;;;;78.70;21.55;;;;;;;;;;4903550;29;20083;-71
2022/10/06 04:11:43;;;;;;;85.55;22.30;;;;;;;;;;4906735;29;20044;-70
2022/10/06 04:14:12;;;;;;;102.53;23.65;;;;;;;;;;4904909;29;20412;-71
2022/10/06 04:16:40;;;;;;;92.50;24.02;;;;;;;;;;4935246;29;20138;-72
2022/10/06 04:19:08;;;;;;;117.68;25.98;;;;;;;;;;4903006;29;20072;-72
2022/10/06 04:21:40;;;;;;;85.95;25.65;;;;;;;;;;4890361;29;20612;-77
2022/10/06 04:24:12;;;;;;;84.90;24.23;;;;;;;;;;4903072;29;20123;-75
2022/10/06 04:26:47;;;;;;;112.35;25.88;;;;;;;;;;4902959;29;20135;-72
2022/10/06 04:29:14;;;;;;;91.68;25.30;;;;;;;;;;4906172;29;20040;-77
2022/10/06 04:31:43;;;;;;;101.38;27.35;;;;;;;;;;4917356;29;20171;-72
2022/10/06 04:34:17;;;;;;;;;;;;;;;;;;4902996;29;20052;-72
2022/10/06 04:36:45;;;;;;;79.13;24.00;;;;;;;;;;4904482;29;19923;-72
2022/10/06 04:39:14;;;;;;;107.88;26.08;;;;;;;;;;4906365;29;20742;-72
2022/10/06 04:41:46;;;;;;;87.00;24.23;;;;;;;;;;4902501;29;20064;-74
2022/10/06 04:44:18;;;;;;;79.80;23.50;;;;;;;;;;4897947;29;20629;-72
2022/10/06 04:46:45;;;;;;;113.10;26.80;;;;;;;;;;4917291;29;20055;-72
2022/10/06 04:49:13;;;;;;;109.68;25.75;;;;;;;;;;4902325;29;20052;-76
2022/10/06 04:51:48;;;;;;;86.65;24.45;;;;;;;;;;4918213;29;20477;-77
2022/10/06 04:54:15;;;;;;;95.18;24.92;;;;;;;;;;4908868;29;20666;-78
2022/10/06 04:56:41;;;;;;;102.00;26.58;;;;;;;;;;4917493;29;20047;-73
2022/10/06 04:59:08;;;;;;;93.97;25.88;;;;;;;;;;4910895;29;20040;-74
2022/10/06 05:01:37;;;;;;;107.55;26.75;;;;;;;;;;4906598;29;20135;-77
2022/10/06 05:04:08;;;;;;;111.20;26.00;;;;;;;;;;4903680;29;20520;-82
2022/10/06 05:06:37;;;;;;;88.97;24.85;;;;;;;;;;4904905;29;20103;-75
2022/10/06 05:09:14;;;;;;;86.30;25.38;;;;;;;;;;4915906;29;20058;-76
2022/10/06 05:11:49;;;;;;;99.28;25.00;;;;;;;;;;4907955;29;20051;-84
2022/10/06 05:14:18;;;;;;;80.82;25.13;;;;;;;;;;4922225;29;20043;-82
2022/10/06 05:16:47;;;;;;;70.63;23.05;;;;;;;;;;4924070;29;20168;-85
2022/10/06 05:19:14;;;;;;;118.38;26.92;;;;;;;;;;4911764;29;20547;-80
2022/10/06 05:21:41;;;;;;;96.82;25.95;;;;;;;;;;4913729;29;20048;-85
2022/10/06 05:24:11;;;;;;;96.50;25.60;;;;;;;;;;4927338;29;20067;-85
2022/10/06 05:26:38;;;;;;;105.28;29.40;;;;;;;;;;4923700;29;20067;-85
2022/10/06 05:29:08;;;;;;;83.78;23.70;;;;;;;;;;4924885;29;20100;-85
2022/10/06 05:31:41;;;;;;;104.50;26.20;;;;;;;;;;4923301;29;20048;-86
2022/10/06 05:34:09;;;;;;;98.13;25.50;;;;;;;;;;4924989;29;20050;-85
2022/10/06 05:36:35;;;;;;;88.30;25.20;;;;;;;;;;4907784;29;20151;-85
2022/10/06 05:39:04;;;;;;;65.20;22.90;;;;;;;;;;4915322;29;20040;-85
2022/10/06 05:41:39;;;;;;;85.30;25.45;;;;;;;;;;4936695;29;20081;-85
2022/10/06 05:44:08;;;;;;;88.93;24.73;;;;;;;;;;4917399;29;20051;-85
2022/10/06 05:46:36;;;;;;;113.65;27.17;;;;;;;;;;4898741;29;20104;-72
2022/10/06 05:49:09;;;;;;;104.22;24.27;;;;;;;;;;4916675;29;20056;-75
2022/10/06 05:51:39;;;;;;;105.70;24.52;;;;;;;;;;4912846;29;20047;-72
2022/10/06 05:54:13;;;;;;;90.05;24.77;;;;;;;;;;4912640;29;20135;-72
2022/10/06 05:56:40;;;;;;;83.53;21.98;;;;;;;;;;4909643;29;20568;-73
2022/10/06 05:59:07;;;;;;;91.63;25.20;;;;;;;;;;4921380;29;20040;-73
2022/10/06 06:01:38;;;;;;;84.28;19.88;;;;;;;;;;4928404;29;20180;-72
2022/10/06 06:04:12;;;;;;;84.68;19.10;;;;;;;;;;4915060;29;20044;-72
2022/10/06 06:06:45;;;;;;;;;;;;;;;;;;4915558;29;20500;-72
2022/10/06 06:09:20;;;;;;;82.37;18.37;;;;;;;;;;4900499;29;19930;-72
2022/10/06 06:11:52;;;;;;;83.70;17.65;;;;;;;;;;4907962;29;20083;-74
2022/10/06 06:17:12;;;;;;;77.40;14.50;;;;;;;;;;4909489;29;20063;-73
2022/10/06 06:19:38;;;;;;;67.32;12.93;;;;;;;;;;4900669;29;20048;-74
2022/10/06 06:22:06;;;;;;;57.58;12.43;;;;;;;;;;4916115;29;20043;-73
2022/10/06 06:24:36;;;;;;;48.60;11.35;;;;;;;;;;4903241;29;20408;-75
2022/10/06 06:27:02;;;;;;;50.70;10.52;;;;;;;;;;4900102;29;20055;-79
2022/10/06 06:29:29;;;;;;;59.75;9.77;;;;;;;;;;4922228;29;20073;-76
2022/10/06 06:31:55;;;;;;;59.90;8.73;;;;;;;;;;4905071;29;20122;-72
2022/10/06 06:34:24;;;;;;;29.90;6.32;;;;;;;;;;4933576;29;20060;-69
2022/10/06 06:36:53;;;;;;;59.47;8.15;;;;;;;;;;4916795;29;20079;-82
2022/10/06 06:39:20;;;;;;;44.75;6.25;;;;;;;;;;4922667;29;20094;-83
2022/10/06 06:41:48;;;;;;;46.03;7.35;;;;;;;;;;4907642;29;20044;-78
2022/10/06 06:44:34;;;;;;;35.30;6.38;;;;;;;;;;4930782;29;20773;-80
2022/10/06 06:47:04;;;;;;;39.75;6.63;;;;;;;;;;4912543;29;20070;-82
2022/10/06 06:49:31;;;;;;;45.45;7.93;;;;;;;;;;4930953;29;20040;-82
2022/10/06 06:52:04;;;;;;;61.85;8.70;;;;;;;;;;4910737;29;20051;-82
2022/10/06 06:54:32;;;;;;;47.53;7.78;;;;;;;;;;4913035;29;20048;-83
2022/10/06 06:57:04;;;;;;;74.93;9.23;;;;;;;;;;4909882;29;20417;-82
2022/10/06 06:59:32;;;;;;;36.47;6.43;;;;;;;;;;4913076;29;20076;-82
2022/10/06 07:01:59;;;;;;;33.70;6.57;;;;;;;;;;4912742;29;20101;-81
2022/10/06 07:04:29;;;;;;;81.55;9.88;;;;;;;;;;4914696;29;20539;-81
2022/10/06 07:06:57;;;;;;;78.43;10.60;;;;;;;;;;4900689;29;20048;-82
2022/10/06 07:09:27;;;;;;;38.33;6.80;;;;;;;;;;4913042;29;20485;-82
2022/10/06 07:11:59;;;;;;;28.27;6.20;;;;;;;;;;4906517;29;20071;-82
2022/10/06 07:14:27;;;;;;;29.48;5.85;;;;;;;;;;4904552;29;20745;-80
2022/10/06 07:25:36;;;;;;;53.28;7.63;;;;;;;;;;4899700;29;20436;-82
2022/10/06 07:28:10;;;;;;;61.63;9.32;;;;;;;;;;4888587;29;20088;-81
2022/10/06 07:30:39;;;;;;;79.93;9.55;;;;;;;;;;4919688;29;20096;-81
2022/10/06 07:33:16;;;;;;;56.45;8.40;;;;;;;;;;4910422;29;20044;-82
2022/10/06 07:35:43;;;;;;;45.92;7.03;;;;;;;;;;4908297;29;20082;-81
2022/10/06 07:38:11;;;;;;;75.45;9.30;;;;;;;;;;4905624;29;20539;-81
2022/10/06 07:40:42;;;;;;;63.42;8.40;;;;;;;;;;4914525;29;20126;-81
2022/10/06 07:43:28;;;;;;;35.17;6.75;;;;;;;;;;4915040;29;20036;-82
2022/10/06 07:45:55;;;;;;;65.13;8.95;;;;;;;;;;4899593;29;20048;-77
2022/10/06 07:48:29;;;;;;;57.58;8.02;;;;;;;;;;4914761;29;20505;-83
2022/10/06 07:50:58;;;;;;;49.67;7.75;;;;;;;;;;4907340;29;20756;-84
2022/10/06 07:53:29;;;;;;;37.17;6.45;;;;;;;;;;4908514;29;20070;-81
2022/10/06 07:56:06;;;;;;;37.58;6.80;;;;;;;;;;4914613;29;20055;-77
2022/10/06 07:58:39;;;;;;;56.67;7.57;;;;;;;;;;4917935;29;20059;-86
2022/10/06 08:01:07;;;;;;;99.70;11.18;;;;;;;;;;4915774;29;20408;-86
2022/10/06 08:03:35;;;;;;;83.13;9.35;;;;;;;;;;4932520;29;20050;-83
2022/10/06 08:06:02;;;;;;;40.33;7.15;;;;;;;;;;4931094;29;20047;-82
2022/10/06 08:08:29;;;;;;;51.50;8.07;;;;;;;;;;4933000;29;20118;-83
2022/10/06 08:10:57;;;;;;;58.75;8.23;;;;;;;;;;4933824;29;20055;-82
2022/10/06 08:13:26;;;;;;;41.85;7.05;;;;;;;;;;4931836;29;20055;-83
2022/10/06 08:15:55;;;;;;;48.45;7.18;;;;;;;;;;4932197;29;20046;-83
2022/10/06 08:18:24;;;;;;;36.00;5.88;;;;;;;;;;4931466;29;20046;-83
2022/10/06 08:21:14;;;;;;;73.65;8.68;;;;;;;;;;4922316;29;20067;-84
2022/10/06 08:23:41;;;;;;;41.50;7.25;;;;;;;;;;4900149;29;20063;-83
2022/10/06 08:26:08;;;;;;;49.15;7.53;;;;;;;;;;4920942;29;20048;-82
2022/10/06 08:28:35;;;;;;;67.88;8.65;;;;;;;;;;4917944;29;20082;-80
2022/10/06 08:31:06;;;;;;;43.83;7.35;;;;;;;;;;4916344;29;20425;-80
2022/10/06 08:33:34;;;;;;;48.15;6.95;;;;;;;;;;4919682;29;20519;-80
2022/10/06 08:36:03;;;;;;;76.63;8.90;;;;;;;;;;4920090;29;20551;-80
2022/10/06 08:38:30;;;;;;;67.82;8.45;;;;;;;;;;4920670;29;20420;-79
2022/10/06 08:40:57;;;;;;;83.00;9.13;;;;;;;;;;4919975;29;20044;-81
2022/10/06 08:43:24;;;;;;;33.47;5.63;;;;;;;;;;4916428;29;20039;-80
2022/10/06 08:45:53;;;;;;;51.00;7.07;;;;;;;;;;4920320;29;20052;-80
2022/10/06 08:48:27;;;;;;;58.05;7.72;;;;;;;;;;4925161;29;20044;-80
2022/10/06 08:51:05;;;;;;;31.83;6.10;;;;;;;;;;4927191;29;20507;-79
2022/10/06 08:53:45;;;;;;;40.92;6.80;;;;;;;;;;4923621;29;20403;-78
2022/10/06 08:56:33;;;;;;;28.60;5.80;;;;;;;;;;4923795;29;20126;-79
2022/10/06 08:59:04;;;;;;;40.97;6.72;;;;;;;;;;4923664;29;20055;-78
2022/10/06 09:01:37;;;;;;;41.88;6.68;;;;;;;;;;4934226;29;20043;-78
2022/10/06 09:04:06;;;;;;;39.60;6.43;;;;;;;;;;4919239;29;20044;-78
2022/10/06 09:06:48;;;;;;;35.85;5.57;;;;;;;;;;4922833;29;20040;-80
2022/10/06 09:09:33;;;;;;;50.85;7.22;;;;;;;;;;4923807;29;20060;-79
2022/10/06 09:12:19;;;;;;;38.88;6.35;;;;;;;;;;4923429;29;20518;-80
2022/10/06 09:14:55;;;;;;;65.25;8.20;;;;;;;;;;4929117;29;20051;-80
2022/10/06 09:17:25;;;;;;;50.50;6.88;;;;;;;;;;4931220;29;20066;-80
2022/10/06 09:19:51;;;;;;;59.88;6.78;;;;;;;;;;4902289;29;20427;-79
2022/10/06 09:22:19;;;;;;;50.88;6.65;;;;;;;;;;4917746;29;20509;-79
2022/10/06 09:24:50;;;;;;;37.85;5.82;;;;;;;;;;4921409;29;20103;-79
2022/10/06 09:27:16;;;;;;;46.13;5.95;;;;;;;;;;4923084;29;20095;-80
2022/10/06 09:29:44;;;;;;;59.28;6.85;;;;;;;;;;4922735;29;20047;-78
2022/10/06 09:32:11;;;;;;;46.47;6.75;;;;;;;;;;4920471;29;20063;-79
2022/10/06 09:34:39;;;;;;;35.50;5.32;;;;;;;;;;4932300;29;20046;-77
2022/10/06 09:37:09;;;;;;;43.75;5.60;;;;;;;;;;4932545;29;20063;-79
2022/10/06 09:39:37;;;;;;;59.40;6.63;;;;;;;;;;4922099;29;20067;-78
2022/10/06 09:42:16;;;;;;;43.47;5.30;;;;;;;;;;4922290;29;20056;-78
2022/10/06 09:44:43;;;;;;;30.23;4.85;;;;;;;;;;4926654;29;20044;-80
2022/10/06 09:47:21;;;;;;;45.63;5.68;;;;;;;;;;4923189;29;20127;-78
2022/10/06 09:50:19;;;;;;;45.42;5.47;;;;;;;;;;4924629;29;20036;-78
2022/10/06 09:53:04;;;;;;;61.33;7.00;;;;;;;;;;4922767;29;20071;-79
2022/10/06 09:55:36;;;;;;;38.53;5.15;;;;;;;;;;4933148;29;20440;-79
2022/10/06 09:58:23;;;;;;;44.30;6.38;;;;;;;;;;4918135;29;20044;-79
2022/10/06 10:00:54;;;;;;;40.80;5.75;;;;;;;;;;4904204;29;20060;-80
2022/10/06 10:03:24;;;;;;;36.95;5.40;;;;;;;;;;4934898;29;20543;-81
2022/10/06 10:05:54;;;;;;;60.42;6.88;;;;;;;;;;4922352;29;20044;-75
2022/10/06 10:08:22;;;;;;;45.53;5.82;;;;;;;;;;4922523;29;20571;-80
2022/10/06 10:13:56;;;;;;;44.28;6.25;;;;;;;;;;4932963;29;20042;-78
2022/10/06 10:16:27;;;;;;;42.90;5.85;;;;;;;;;;4917856;29;20475;-73
2022/10/06 10:18:54;;;;;;;44.65;5.60;;;;;;;;;;4918989;29;20076;-74
2022/10/06 10:21:24;;;;;;;28.63;5.22;;;;;;;;;;4922041;29;20070;-76
2022/10/06 10:23:54;;;;;;;36.33;5.43;;;;;;;;;;4922274;29;20047;-81
2022/10/06 10:26:25;;;;;;;52.55;6.68;;;;;;;;;;4921847;29;20051;-68
2022/10/06 10:28:55;;;;;;;42.47;5.78;;;;;;;;;;4920731;29;20053;-77
2022/10/06 10:31:31;;;;;;;64.30;6.90;;;;;;;;;;4917876;29;20032;-79
2022/10/06 10:34:10;;;;;;;33.42;5.43;;;;;;;;;;4933891;29;20086;-77
2022/10/06 10:36:49;;;;;;;47.25;5.97;;;;;;;;;;4932852;29;20678;-78
2022/10/06 10:39:35;;;;;;;42.90;5.32;;;;;;;;;;4918652;29;20048;-79
2022/10/06 10:42:03;;;;;;;49.88;6.28;;;;;;;;;;4921350;29;20067;-77
2022/10/06 10:44:36;;;;;;;37.65;5.57;;;;;;;;;;4926034;29;20062;-80
2022/10/06 10:47:12;;;;;;;23.65;4.68;;;;;;;;;;4933549;29;20134;-80
2022/10/06 10:49:42;;;;;;;29.95;4.43;;;;;;;;;;4922704;29;20070;-83
2022/10/06 10:52:12;;;;;;;41.10;5.63;;;;;;;;;;4923616;29;20637;-85
2022/10/06 10:54:45;;;;;;;37.10;5.13;;;;;;;;;;4924264;29;20135;-83
2022/10/06 10:57:15;;;;;;;76.75;8.10;;;;;;;;;;4926547;29;20048;-79
2022/10/06 10:59:41;;;;;;;62.63;7.18;;;;;;;;;;4923533;29;20088;-82
2022/10/06 11:02:12;;;;;;;55.90;6.45;;;;;;;;;;4921415;29;20400;-65
2022/10/06 11:04:40;;;;;;;36.03;5.25;;;;;;;;;;4918654;29;20044;-76
2022/10/06 11:07:28;;;;;;;47.28;6.05;;;;;;;;;;4916374;29;20051;-77
2022/10/06 11:10:09;;;;;;;180.73;14.13;;;;;;;;;;4928884;29;20428;-74
2022/10/06 11:12:51;;;;;;;58.92;6.82;;;;;;;;;;4919630;29;20048;-68
2022/10/06 11:15:38;;;;;;;39.13;5.45;;;;;;;;;;4921442;29;20043;-73
2022/10/06 11:18:14;;;;;;;35.47;5.28;;;;;;;;;;4920683;29;20509;-77
2022/10/06 11:21:07;;;;;;;30.25;4.53;;;;;;;;;;4921883;29;20074;-81
2022/10/06 11:23:49;;;;;;;44.10;5.50;;;;;;;;;;4921515;29;20135;-76
2022/10/06 11:26:25;;;;;;;52.03;6.30;;;;;;;;;;4920869;29;20040;-79
2022/10/06 11:28:57;;;;;;;40.35;5.35;;;;;;;;;;4920429;29;20632;-77
2022/10/06 11:31:26;;;;;;;58.35;6.68;;;;;;;;;;4917076;29;20051;-80
2022/10/06 11:33:54;;;;;;;41.67;5.43;;;;;;;;;;4918269;29;20058;-81
2022/10/06 11:36:30;;;;;;;41.92;4.93;;;;;;;;;;4921258;29;20131;-79
2022/10/06 11:39:06;;;;;;;45.20;5.55;;;;;;;;;;4916923;29;20047;-81
2022/10/06 11:41:42;;;;;;;49.17;6.15;;;;;;;;;;4920246;29;20077;-80
2022/10/06 11:44:09;;;;;;;86.43;8.48;;;;;;;;;;4921104;29;20047;-81
2022/10/06 11:46:38;;;;;;;40.60;5.25;;;;;;;;;;4929618;29;20044;-74
2022/10/06 11:49:28;;;;;;;58.80;7.47;;;;;;;;;;4931689;29;20048;-75
2022/10/06 11:51:56;;;;;;;31.25;4.60;;;;;;;;;;4917730;29;20083;-75
2022/10/06 11:54:38;;;;;;;64.75;7.00;;;;;;;;;;4920460;29;20080;-76
2022/10/06 11:57:25;;;;;;;44.00;6.07;;;;;;;;;;4920239;29;20053;-74
2022/10/06 12:00:14;;;;;;;39.67;5.28;;;;;;;;;;4919725;29;20059;-74
2022/10/06 12:02:42;;;;;;;41.35;5.00;;;;;;;;;;4931403;29;20054;-76
2022/10/06 12:05:08;;;;;;;58.55;6.50;;;;;;;;;;4930652;29;20039;-76
2022/10/06 12:07:55;;;;;;;28.35;4.13;;;;;;;;;;4920346;29;20050;-75
2022/10/06 12:10:28;;;;;;;62.88;6.50;;;;;;;;;;4919959;29;20490;-76
2022/10/06 12:13:09;;;;;;;43.27;4.73;;;;;;;;;;4917701;29;20058;-75
2022/10/06 12:15:55;;;;;;;57.72;5.75;;;;;;;;;;4931581;29;20048;-74
2022/10/06 12:18:42;;;;;;;55.00;5.43;;;;;;;;;;4932963;29;20523;-75
2022/10/06 12:21:23;;;;;;;40.38;4.07;;;;;;;;;;4935456;29;20075;-75
2022/10/06 12:23:49;;;;;;;43.33;4.78;;;;;;;;;;4929053;29;20055;-76
2022/10/06 12:26:16;;;;;;;50.22;5.22;;;;;;;;;;4924126;29;20047;-75
2022/10/06 12:28:47;;;;;;;31.08;4.10;;;;;;;;;;4922255;29;20126;-73
2022/10/06 12:31:32;;;;;;;74.97;6.20;;;;;;;;;;4928058;29;20044;-73
2022/10/06 12:33:58;;;;;;;40.67;4.53;;;;;;;;;;4932153;29;20040;-74
2022/10/06 12:36:27;;;;;;;28.13;4.13;;;;;;;;;;4924303;29;20040;-70
2022/10/06 12:39:08;;;;;;;94.18;7.90;;;;;;;;;;4922239;29;20575;-72
2022/10/06 12:41:53;;;;;;;47.28;5.47;;;;;;;;;;4922872;29;20036;-74
2022/10/06 12:44:22;;;;;;;42.35;5.05;;;;;;;;;;4929243;29;20054;-71
2022/10/06 12:46:48;;;;;;;41.22;4.93;;;;;;;;;;4921498;29;20043;-72
2022/10/06 12:49:35;;;;;;;72.97;7.05;;;;;;;;;;4924614;29;20500;-72
2022/10/06 12:52:07;;;;;;;43.70;4.93;;;;;;;;;;4931460;29;20043;-75
2022/10/06 12:54:42;;;;;;;38.75;4.97;;;;;;;;;;4923042;29;20099;-74
2022/10/06 12:57:18;;;;;;;52.45;5.47;;;;;;;;;;4923462;29;20055;-74
2022/10/06 12:59:46;;;;;;;53.55;5.90;;;;;;;;;;4923569;29;20124;-73
2022/10/06 13:02:16;;;;;;;41.85;4.78;;;;;;;;;;4923445;29;20510;-73
2022/10/06 13:04:52;;;;;;;32.78;4.53;;;;;;;;;;4921012;29;20079;-73
2022/10/06 13:07:23;;;;;;;64.57;5.80;;;;;;;;;;4934006;29;20091;-73
2022/10/06 13:09:52;;;;;;;47.70;5.30;;;;;;;;;;4921049;29;20044;-73
2022/10/06 13:12:26;;;;;;;24.40;3.45;;;;;;;;;;4933135;29;20455;-73
2022/10/06 13:15:11;;;;;;;32.88;4.38;;;;;;;;;;4934379;29;20460;-73
2022/10/06 13:17:58;;;;;;;61.22;6.20;;;;;;;;;;4929208;29;20108;-73
2022/10/06 13:20:51;;;;;;;32.95;4.18;;;;;;;;;;4923438;29;20059;-73
2022/10/06 13:23:18;;;;;;;34.97;4.40;;;;;;;;;;4920537;29;20445;-72
2022/10/06 13:25:59;;;;;;;43.53;4.95;;;;;;;;;;4920412;29;20135;-73
2022/10/06 13:28:43;;;;;;;40.88;4.45;;;;;;;;;;4918480;29;20489;-73
2022/10/06 13:31:17;;;;;;;30.20;3.70;;;;;;;;;;4931079;29;20052;-73
2022/10/06 13:33:45;;;;;;;43.13;4.68;;;;;;;;;;4921488;29;20044;-73
2022/10/06 13:36:12;;;;;;;40.75;4.75;;;;;;;;;;4922923;29;20055;-73
2022/10/06 13:38:40;;;;;;;46.45;4.95;;;;;;;;;;4922932;29;20670;-71
2022/10/06 13:41:12;;;;;;;53.67;5.38;;;;;;;;;;4922569;29;20036;-73
2022/10/06 13:43:42;;;;;;;45.93;4.77;;;;;;;;;;4925624;29;20123;-73
2022/10/06 13:46:09;;;;;;;86.72;6.72;;;;;;;;;;4918184;29;20278;-73
2022/10/06 13:48:41;;;;;;;41.08;4.53;;;;;;;;;;4924720;29;20119;-73
2022/10/06 13:51:12;;;;;;;31.48;3.80;;;;;;;;;;4925157;29;20515;-73
2022/10/06 13:53:42;;;;;;;57.20;5.20;;;;;;;;;;4923247;29;20083;-73
2022/10/06 13:56:44;;;;;;;31.70;4.00;;;;;;;;;;4922514;29;20044;-73
2022/10/06 13:59:21;;;;;;;41.30;4.38;;;;;;;;;;4855677;29;20050;-73
2022/10/06 14:01:48;;;;;;;59.83;5.47;;;;;;;;;;4859334;29;20410;-73
2022/10/06 14:04:19;;;;;;;48.63;4.82;;;;;;;;;;4855880;29;20046;-73
2022/10/06 14:06:50;;;;;;;37.72;3.80;;;;;;;;;;4858308;29;20065;-74
2022/10/06 14:09:24;;;;;;;47.88;4.95;;;;;;;;;;4859463;29;20056;-71
2022/10/06 14:11:53;;;;;;;61.92;6.93;;;;;;;;;;4858724;29;20049;-73
2022/10/06 14:14:19;;;;;;;32.05;3.75;;;;;;;;;;4858989;29;20069;-72
2022/10/06 14:16:50;;;;;;;49.72;5.07;;;;;;;;;;4854932;29;20053;-73
2022/10/06 14:19:36;;;;;;;107.07;8.23;;;;;;;;;;4854480;29;20198;-72
2022/10/06 14:22:04;;;;;;;76.78;6.65;;;;;;;;;;4854479;29;20585;-73
2022/10/06 14:24:32;;;;;;;34.88;4.07;;;;;;;;;;4855466;29;20045;-72
2022/10/06 14:27:00;;;;;;;36.00;4.10;;;;;;;;;;4853896;29;20140;-73
2022/10/06 14:29:26;;;;;;;43.13;4.50;;;;;;;;;;4857355;29;20405;-73
2022/10/06 14:31:53;;;;;;;39.58;4.45;;;;;;;;;;4856916;29;20475;-72
2022/10/06 14:34:20;;;;;;;67.80;6.15;;;;;;;;;;4927952;29;20039;-72
2022/10/06 14:36:50;;;;;;;49.83;5.03;;;;;;;;;;4915331;29;20063;-72
2022/10/06 14:39:16;;;;;;;44.67;4.57;;;;;;;;;;4923485;29;20054;-73
2022/10/06 14:41:44;;;;;;;47.15;5.53;;;;;;;;;;4921148;29;20482;-72
2022/10/06 14:44:11;;;;;;;51.13;4.95;;;;;;;;;;4916349;29;20039;-71
2022/10/06 14:46:39;;;;;;;37.45;4.22;;;;;;;;;;4929695;29;20044;-72
2022/10/06 14:49:06;;;;;;;39.03;4.22;;;;;;;;;;4917000;29;20050;-73
2022/10/06 14:51:33;;;;;;;56.55;5.60;;;;;;;;;;4916942;29;20044;-72
2022/10/06 14:54:03;;;;;;;21.63;3.33;;;;;;;;;;4917682;29;20147;-72
2022/10/06 14:56:31;;;;;;;56.28;5.60;;;;;;;;;;4916612;29;20115;-72
2022/10/06 14:59:03;;;;;;;37.03;4.05;;;;;;;;;;4917138;29;20055;-73